Time;durP1;ratioP1;P1;durP2;ratioP2;P2;SDS_P1;SDS_P2;PMS_P1;PMS_P2;Temp;Humidity;BMP_temperature;BMP_pressure;BME280_temperature;BME280_humidity;BME280_pressure;Samples;Min_cycle;Max_cycle;Signal;HPM_P1;HPM_P2
2022/08/28 00:02:15;;;;;;;8.55;3.00;;;12.30;99.90;;;;;;6218837;23;20012;-80
2022/08/28 00:04:41;;;;;;;15.43;3.15;;;12.30;99.90;;;;;;6218256;23;20020;-80
2022/08/28 00:07:07;;;;;;;8.50;3.25;;;12.30;99.90;;;;;;6219100;23;20009;-80
2022/08/28 00:09:33;;;;;;;13.63;3.25;;;12.30;99.90;;;;;;6245837;23;20020;-81
2022/08/28 00:12:00;;;;;;;11.07;3.13;;;12.30;99.90;;;;;;6244981;23;20013;-80
2022/08/28 00:14:26;;;;;;;13.60;2.55;;;12.30;99.90;;;;;;6247260;23;20113;-81
2022/08/28 00:16:53;;;;;;;13.50;2.88;;;12.30;99.90;;;;;;6248149;23;20016;-80
2022/08/28 00:19:21;;;;;;;8.48;3.50;;;12.30;99.90;;;;;;6219785;23;20047;-80
2022/08/28 00:21:47;;;;;;;11.65;3.20;;;12.20;99.90;;;;;;6220921;23;20086;-80
2022/08/28 00:24:13;;;;;;;15.68;3.13;;;12.20;99.90;;;;;;6248080;23;20016;-80
2022/08/28 00:29:23;;;;;;;9.95;2.85;;;12.20;99.90;;;;;;6220821;23;20055;-81
2022/08/28 00:31:50;;;;;;;10.38;3.20;;;12.10;99.90;;;;;;6248027;23;20012;-80
2022/08/28 00:34:15;;;;;;;7.30;2.65;;;12.10;99.90;;;;;;6246905;23;20082;-80
2022/08/28 00:36:41;;;;;;;7.20;2.90;;;12.10;99.90;;;;;;6247941;23;20016;-80
2022/08/28 00:39:08;;;;;;;10.00;2.85;;;12.10;99.90;;;;;;6246994;23;20081;-80
2022/08/28 00:41:37;;;;;;;5.63;2.70;;;12.10;99.90;;;;;;6247750;23;20023;-81
2022/08/28 00:44:16;;;;;;;7.68;2.63;;;12.10;99.90;;;;;;6220743;23;20024;-80
2022/08/28 00:46:45;;;;;;;6.47;2.72;;;12.10;99.90;;;;;;6246985;23;20091;-80
2022/08/28 00:49:13;;;;;;;7.22;2.83;;;12.00;99.90;;;;;;6247713;23;20015;-80
2022/08/28 00:54:25;;;;;;;;;;;12.00;99.90;;;;;;6220245;23;20024;-80
2022/08/28 00:56:53;;;;;;;3.75;1.80;;;11.90;99.90;;;;;;6221048;23;19922;-80
2022/08/28 00:59:22;;;;;;;6.90;2.53;;;11.90;99.90;;;;;;6220343;23;20041;-80
2022/08/28 01:01:48;;;;;;;6.95;2.22;;;11.80;99.90;;;;;;6219678;23;20016;-80
2022/08/28 01:04:17;;;;;;;6.35;1.83;;;11.80;99.90;;;;;;6220959;23;20016;-80
2022/08/28 01:06:45;;;;;;;8.07;2.40;;;11.80;99.90;;;;;;6195549;23;20016;-80
2022/08/28 01:09:11;;;;;;;7.38;2.30;;;11.70;99.90;;;;;;6246578;23;20386;-80
2022/08/28 01:11:41;;;;;;;5.28;2.42;;;11.70;99.90;;;;;;6220491;23;20019;-80
2022/08/28 01:14:08;;;;;;;9.93;2.40;;;11.70;99.90;;;;;;6220452;23;20104;-80
2022/08/28 01:16:35;;;;;;;5.43;2.38;;;11.60;99.90;;;;;;6219827;23;20016;-80
2022/08/28 01:19:05;;;;;;;5.35;2.17;;;11.60;99.90;;;;;;6220438;23;20347;-80
2022/08/28 01:22:03;;;;;;;6.70;2.83;;;11.60;99.90;;;;;;6194581;23;20030;-81
2022/08/28 01:24:30;;;;;;;7.47;2.42;;;11.60;99.90;;;;;;6169750;23;20016;-81
2022/08/28 01:26:56;;;;;;;8.25;2.35;;;11.50;99.90;;;;;;6219481;23;20068;-80
2022/08/28 01:29:22;;;;;;;7.28;2.67;;;11.50;99.90;;;;;;6246499;23;20423;-80
2022/08/28 01:31:48;;;;;;;7.80;2.40;;;11.50;99.90;;;;;;6220400;23;20031;-80
2022/08/28 01:34:14;;;;;;;4.65;2.45;;;11.50;99.90;;;;;;6220348;23;20023;-81
2022/08/28 01:36:41;;;;;;;10.35;2.97;;;11.50;99.90;;;;;;6219388;23;20016;-80
2022/08/28 01:39:21;;;;;;;5.85;2.95;;;11.50;99.90;;;;;;6220219;23;20020;-80
2022/08/28 01:41:50;;;;;;;5.68;2.65;;;11.40;99.90;;;;;;6246894;22;20436;-80
2022/08/28 01:44:22;;;;;;;9.38;2.22;;;11.40;99.90;;;;;;6219116;23;20141;-80
2022/08/28 01:46:48;;;;;;;7.18;2.22;;;11.40;99.90;;;;;;6220270;23;20354;-80
2022/08/28 01:49:15;;;;;;;7.53;2.70;;;11.40;99.90;;;;;;6220074;23;20012;-80
2022/08/28 01:51:40;;;;;;;6.53;2.78;;;11.40;99.90;;;;;;6246346;23;20023;-80
2022/08/28 01:54:07;;;;;;;10.18;2.90;;;11.40;99.90;;;;;;6220092;23;20087;-80
2022/08/28 01:56:34;;;;;;;7.05;2.85;;;11.40;99.90;;;;;;6219091;23;20012;-80
2022/08/28 01:59:06;;;;;;;6.82;2.42;;;11.40;99.90;;;;;;6246597;23;20016;-80
2022/08/28 02:01:32;;;;;;;10.48;2.20;;;11.30;99.90;;;;;;6194964;23;20047;-80
2022/08/28 02:03:59;;;;;;;6.38;2.08;;;11.30;99.90;;;;;;6218802;23;20027;-80
2022/08/28 02:06:25;;;;;;;8.07;2.35;;;11.30;99.90;;;;;;6247120;23;20091;-80
2022/08/28 02:08:54;;;;;;;5.72;2.10;;;11.30;99.90;;;;;;6219874;23;20012;-80
2022/08/28 02:11:23;;;;;;;11.13;2.20;;;11.30;99.90;;;;;;6219032;23;20020;-80
2022/08/28 02:13:49;;;;;;;6.95;2.38;;;11.30;99.90;;;;;;6247075;23;20019;-80
2022/08/28 02:16:15;;;;;;;11.70;2.70;;;11.20;99.90;;;;;;6246910;23;20012;-80
2022/08/28 02:18:41;;;;;;;6.88;2.85;;;11.20;99.90;;;;;;6245627;23;20048;-80
2022/08/28 02:21:08;;;;;;;10.80;3.15;;;11.20;99.90;;;;;;6246953;23;20083;-80
2022/08/28 02:23:36;;;;;;;9.90;3.08;;;11.20;99.90;;;;;;6219830;23;20016;-80
2022/08/28 02:26:02;;;;;;;8.80;2.80;;;11.20;99.90;;;;;;6218829;23;20088;-80
2022/08/28 02:28:28;;;;;;;5.72;2.63;;;11.10;99.90;;;;;;6246456;23;20397;-80
2022/08/28 02:30:54;;;;;;;7.10;2.45;;;11.10;99.90;;;;;;6246882;23;20095;-80
2022/08/28 02:33:20;;;;;;;7.25;2.70;;;11.10;99.90;;;;;;6245277;23;20016;-80
2022/08/28 02:35:45;;;;;;;8.55;2.90;;;11.10;99.90;;;;;;6246865;23;20020;-80
2022/08/28 02:38:11;;;;;;;4.10;2.50;;;11.10;99.90;;;;;;6246379;23;20463;-80
2022/08/28 02:40:37;;;;;;;7.20;2.50;;;11.10;99.90;;;;;;6245845;23;20024;-80
2022/08/28 02:43:04;;;;;;;4.55;2.45;;;11.10;99.90;;;;;;6214446;23;20388;-80
2022/08/28 02:45:30;;;;;;;7.45;2.28;;;11.10;99.90;;;;;;6216556;23;20087;-80
2022/08/28 02:47:56;;;;;;;7.97;2.63;;;11.10;99.90;;;;;;6213660;23;20508;-80
2022/08/28 02:50:22;;;;;;;6.38;2.60;;;11.10;99.90;;;;;;6214280;23;20055;-80
2022/08/28 09:17:12;;;;;;;6.45;1.58;;;19.10;99.90;;;;;;6247118;23;20031;-80
2022/08/28 09:19:38;;;;;;;5.70;2.20;;;18.80;99.90;;;;;;6220387;23;20447;-79
2022/08/28 09:22:04;;;;;;;3.78;1.70;;;18.70;99.90;;;;;;6219676;23;20023;-79
2022/08/28 09:24:35;;;;;;;10.27;1.98;;;18.60;99.90;;;;;;6220005;23;20103;-79
2022/08/28 09:27:05;;;;;;;5.65;1.35;;;18.50;99.90;;;;;;6195434;23;20020;-81
2022/08/28 09:29:38;;;;;;;6.82;1.88;;;18.50;99.90;;;;;;6244901;23;20013;-81
2022/08/28 09:32:32;;;;;;;3.25;1.73;;;18.40;99.90;;;;;;6218531;23;20074;-80
2022/08/28 09:35:01;;;;;;;7.18;1.45;;;18.40;99.90;;;;;;6220146;23;20020;-81
2022/08/28 09:37:31;;;;;;;7.82;1.80;;;18.50;99.90;;;;;;6219396;23;20012;-80
2022/08/28 09:40:16;;;;;;;7.30;1.80;;;18.70;99.90;;;;;;6219987;23;20466;-80
2022/08/28 09:45:54;;;;;;;7.70;2.08;;;18.90;99.90;;;;;;6246294;23;20008;-79
2022/08/28 09:48:36;;;;;;;10.02;2.40;;;18.90;99.90;;;;;;6246722;23;20020;-79
2022/08/28 09:51:06;;;;;;;7.40;1.60;;;18.90;99.90;;;;;;6218415;23;20440;-79
2022/08/28 09:53:49;;;;;;;5.13;1.80;;;18.90;99.90;;;;;;6219737;23;20016;-80
2022/08/28 09:56:26;;;;;;;4.85;1.73;;;18.90;99.90;;;;;;6244560;23;20020;-80
2022/08/28 09:59:06;;;;;;;6.10;2.17;;;18.80;99.90;;;;;;6220112;23;20023;-80
2022/08/28 10:01:56;;;;;;;9.90;1.90;;;18.70;99.90;;;;;;6220192;23;20478;-79
2022/08/28 10:04:45;;;;;;;5.53;1.70;;;18.80;99.90;;;;;;6218747;23;20012;-82
2022/08/28 10:07:26;;;;;;;5.95;1.60;;;18.90;99.90;;;;;;6219121;23;20389;-79
2022/08/28 10:09:55;;;;;;;3.63;1.27;;;19.10;99.90;;;;;;6194961;23;20320;-79
2022/08/28 10:12:36;;;;;;;6.35;1.55;;;19.10;99.90;;;;;;6245891;23;20027;-80
2022/08/28 10:15:23;;;;;;;5.63;2.13;;;19.10;99.90;;;;;;6220049;23;20020;-79
2022/08/28 10:18:10;;;;;;;5.95;2.17;;;19.20;99.90;;;;;;6246290;23;20020;-80
2022/08/28 10:20:41;;;;;;;7.82;1.85;;;19.20;99.90;;;;;;6245255;23;20012;-81
2022/08/28 10:23:19;;;;;;;5.20;1.42;;;19.20;99.90;;;;;;6246100;23;20051;-80
2022/08/28 10:25:59;;;;;;;4.43;1.80;;;19.10;99.90;;;;;;6218966;23;20444;-81
2022/08/28 10:28:27;;;;;;;5.13;1.70;;;19.30;99.90;;;;;;6219901;23;20335;-80
2022/08/28 10:31:16;;;;;;;7.95;1.77;;;19.30;99.90;;;;;;6220179;23;20095;-81
2022/08/28 10:34:03;;;;;;;4.72;1.80;;;19.30;99.90;;;;;;6218956;23;20027;-81
2022/08/28 10:36:32;;;;;;;4.80;1.38;;;19.20;99.90;;;;;;6219780;23;20099;-80
2022/08/28 10:39:28;;;;;;;2.55;1.70;;;19.00;99.90;;;;;;6218406;23;20043;-81
2022/08/28 10:41:58;;;;;;;4.43;1.50;;;18.90;99.90;;;;;;6219832;23;20344;-80
2022/08/28 10:44:46;;;;;;;5.18;1.50;;;18.90;99.90;;;;;;6219847;23;20086;-81
2022/08/28 10:47:14;;;;;;;5.35;1.58;;;18.90;99.90;;;;;;6193699;23;20046;-80
2022/08/28 10:49:45;;;;;;;6.68;1.63;;;18.90;99.90;;;;;;6246403;23;20055;-80
2022/08/28 10:52:16;;;;;;;3.53;1.40;;;18.90;99.90;;;;;;6219451;23;20027;-78
2022/08/28 10:54:48;;;;;;;4.90;3.03;;;18.90;99.90;;;;;;6245485;23;20022;-80
2022/08/28 10:57:56;;;;;;;8.65;1.98;;;19.10;99.90;;;;;;6219083;23;20023;-81
2022/08/28 11:00:25;;;;;;;5.28;1.60;;;19.30;99.90;;;;;;6191804;23;20023;-82
2022/08/28 11:03:07;;;;;;;6.85;1.23;;;19.40;99.90;;;;;;6219221;23;20020;-81
2022/08/28 11:05:49;;;;;;;5.75;1.73;;;19.50;99.90;;;;;;6219650;23;20023;-80
2022/08/28 11:08:34;;;;;;;6.65;1.67;;;19.60;99.90;;;;;;6217745;23;20371;-78
2022/08/28 11:11:01;;;;;;;;;;;19.70;99.90;;;;;;6247256;23;20077;-79
2022/08/28 11:13:39;;;;;;;3.75;1.23;;;19.70;99.30;;;;;;6219254;23;19916;-79
2022/08/28 11:16:34;;;;;;;2.22;1.17;;;19.70;99.90;;;;;;6245918;23;20091;-80
2022/08/28 11:19:13;;;;;;;3.70;1.43;;;19.70;99.90;;;;;;6219057;23;20182;-83
2022/08/28 11:21:53;;;;;;;5.38;1.52;;;19.60;99.90;;;;;;6218654;23;20642;-79
2022/08/28 11:24:38;;;;;;;2.60;1.45;;;19.60;99.90;;;;;;6218946;23;20103;-81
2022/08/28 11:27:25;;;;;;;3.05;1.60;;;19.30;99.90;;;;;;6193427;23;20317;-79
2022/08/28 11:30:05;;;;;;;6.07;1.52;;;19.20;99.90;;;;;;6218448;23;20447;-80
2022/08/28 11:32:31;;;;;;;6.22;2.50;;;19.30;99.90;;;;;;6218460;23;20024;-80
2022/08/28 11:35:00;;;;;;;3.78;1.23;;;19.40;99.90;;;;;;6217934;23;20461;-80
2022/08/28 11:37:36;;;;;;;4.30;1.83;;;19.50;99.90;;;;;;6218511;23;20016;-79
2022/08/28 11:40:17;;;;;;;7.53;1.65;;;19.50;99.90;;;;;;6219007;23;20020;-79
2022/08/28 11:42:47;;;;;;;3.92;1.48;;;19.40;99.90;;;;;;6245269;23;20375;-78
2022/08/28 11:45:44;;;;;;;2.72;1.00;;;19.20;99.90;;;;;;6246025;23;20012;-82
2022/08/28 11:48:25;;;;;;;6.00;1.42;;;19.00;99.90;;;;;;6246053;23;20016;-80
2022/08/28 11:50:57;;;;;;;7.25;1.45;;;18.90;99.90;;;;;;6217749;23;20030;-81
2022/08/28 11:53:42;;;;;;;5.28;1.13;;;18.90;99.90;;;;;;6218837;23;20024;-81
2022/08/28 11:56:12;;;;;;;6.95;2.15;;;19.00;99.90;;;;;;6218549;23;20059;-80
2022/08/28 11:58:50;;;;;;;4.47;1.30;;;19.10;99.90;;;;;;6218809;23;20024;-82
2022/08/28 12:01:28;;;;;;;4.97;1.75;;;19.30;99.90;;;;;;6246251;23;20078;-79
2022/08/28 12:04:16;;;;;;;6.30;1.23;;;19.50;99.90;;;;;;6216927;23;20013;-81
2022/08/28 12:06:50;;;;;;;4.78;1.60;;;19.60;99.90;;;;;;6246444;23;20062;-81
2022/08/28 12:09:25;;;;;;;;;;;19.70;99.90;;;;;;6219394;23;20095;-80
2022/08/28 12:11:57;;;;;;;2.38;1.20;;;19.80;99.90;;;;;;6220280;23;19915;-80
2022/08/28 12:14:27;;;;;;;3.08;1.30;;;19.80;99.90;;;;;;6220537;23;20026;-83
2022/08/28 12:16:58;;;;;;;5.65;1.98;;;19.60;99.70;;;;;;6214977;23;20344;-80
2022/08/28 12:19:43;;;;;;;3.22;1.10;;;19.60;99.90;;;;;;6214955;23;20075;-84
2022/08/28 12:22:11;;;;;;;8.65;1.25;;;19.70;99.90;;;;;;6217372;23;20020;-81
2022/08/28 12:24:49;;;;;;;3.38;1.27;;;19.80;99.90;;;;;;6213410;23;20024;-81
2022/08/28 12:27:16;;;;;;;10.40;1.80;;;19.80;99.90;;;;;;6217991;23;20012;-78
2022/08/28 12:29:52;;;;;;;4.03;1.17;;;19.90;99.90;;;;;;6217186;23;20016;-79
2022/08/28 12:32:24;;;;;;;2.33;1.20;;;20.00;99.40;;;;;;6213953;23;20027;-81
2022/08/28 12:35:18;;;;;;;4.03;1.27;;;20.10;98.60;;;;;;6216321;23;20095;-80
2022/08/28 12:37:53;;;;;;;1.90;0.90;;;20.00;98.40;;;;;;6203624;23;20460;-83
2022/08/28 12:40:35;;;;;;;2.35;1.02;;;19.90;97.60;;;;;;6214861;23;20056;-81
2022/08/28 12:43:04;;;;;;;4.82;1.00;;;19.80;98.30;;;;;;6215424;23;20056;-78
2022/08/28 12:45:42;;;;;;;4.63;1.23;;;19.60;98.40;;;;;;6215288;23;20017;-80
2022/08/28 12:48:25;;;;;;;1.95;1.02;;;19.60;99.00;;;;;;6215935;23;20016;-81
2022/08/28 12:51:12;;;;;;;1.55;1.10;;;19.60;99.20;;;;;;6215742;23;20020;-82
2022/08/28 12:53:42;;;;;;;3.28;0.82;;;19.60;99.20;;;;;;6215821;23;20013;-80
2022/08/28 12:56:09;;;;;;;4.10;0.98;;;19.60;99.20;;;;;;6215771;23;20021;-82
2022/08/28 12:58:38;;;;;;;3.53;0.90;;;19.60;99.40;;;;;;6215146;23;20087;-80
2022/08/28 13:01:14;;;;;;;4.18;1.20;;;19.60;99.20;;;;;;6188736;23;20347;-81
2022/08/28 13:03:46;;;;;;;5.00;1.13;;;19.60;99.90;;;;;;6215309;23;20020;-82
2022/08/28 13:06:12;;;;;;;5.15;1.30;;;19.60;99.90;;;;;;6213589;23;20296;-84
2022/08/28 13:08:38;;;;;;;2.50;0.85;;;19.60;99.90;;;;;;6190523;23;20020;-81
2022/08/28 13:11:05;;;;;;;4.20;1.13;;;19.60;99.90;;;;;;6214924;23;20466;-80
2022/08/28 13:13:31;;;;;;;4.88;1.30;;;19.50;99.90;;;;;;6214711;23;20017;-81
2022/08/28 13:16:07;;;;;;;5.43;1.20;;;19.50;99.90;;;;;;6226165;22;20494;-79
2022/08/28 13:18:42;;;;;;;4.35;1.10;;;19.60;99.90;;;;;;6220344;23;20028;-82
2022/08/28 13:21:12;;;;;;;4.43;1.40;;;19.80;99.90;;;;;;6193787;23;20517;-78
2022/08/28 13:23:39;;;;;;;1.73;0.73;;;19.80;99.90;;;;;;6220033;23;20020;-80
2022/08/28 13:26:06;;;;;;;4.20;0.95;;;19.80;99.90;;;;;;6194801;23;20008;-78
2022/08/28 13:28:37;;;;;;;5.05;1.50;;;19.80;99.90;;;;;;6246225;23;20020;-79
2022/08/28 13:31:04;;;;;;;4.25;1.30;;;19.80;99.90;;;;;;6246619;23;20016;-80
2022/08/28 13:33:30;;;;;;;10.32;1.30;;;19.80;99.90;;;;;;6247038;23;20491;-80
2022/08/28 13:35:56;;;;;;;5.63;0.93;;;19.80;99.90;;;;;;6218922;23;20074;-83
2022/08/28 13:38:23;;;;;;;3.80;1.30;;;19.80;99.90;;;;;;6247143;23;20467;-81
2022/08/28 13:40:56;;;;;;;2.85;1.02;;;19.70;99.90;;;;;;6246905;23;20016;-82
2022/08/28 13:43:24;;;;;;;7.75;1.45;;;19.60;99.90;;;;;;6246471;23;20023;-79
2022/08/28 13:45:51;;;;;;;3.50;1.08;;;19.60;99.90;;;;;;6246688;23;20020;-80
2022/08/28 13:48:25;;;;;;;4.75;1.60;;;19.70;99.90;;;;;;6218032;23;20016;-79
2022/08/28 13:50:57;;;;;;;4.03;0.95;;;19.90;99.90;;;;;;6246218;23;20027;-79
2022/08/28 13:53:23;;;;;;;3.42;1.08;;;20.00;99.90;;;;;;6247480;23;20020;-81
2022/08/28 13:55:49;;;;;;;3.55;1.15;;;20.10;99.90;;;;;;6244418;23;20012;-80
2022/08/28 13:58:15;;;;;;;4.80;1.35;;;20.00;99.90;;;;;;6246436;23;20474;-81
2022/08/28 14:00:44;;;;;;;3.33;1.25;;;19.80;99.90;;;;;;6219746;23;20015;-81
2022/08/28 14:05:55;;;;;;;4.03;1.20;;;19.70;99.90;;;;;;6247399;23;20020;-78
2022/08/28 14:08:21;;;;;;;3.65;1.20;;;19.70;99.90;;;;;;6246255;23;20023;-80
2022/08/28 14:10:47;;;;;;;5.25;1.73;;;19.70;99.90;;;;;;6194075;23;20095;-79
2022/08/28 14:13:14;;;;;;;4.65;1.02;;;19.80;99.90;;;;;;6219480;23;20447;-81
2022/08/28 14:15:39;;;;;;;2.90;1.17;;;19.90;99.90;;;;;;6246409;23;20352;-79
2022/08/28 14:18:05;;;;;;;6.65;1.27;;;19.80;99.90;;;;;;6218410;23;20021;-78
2022/08/28 14:20:31;;;;;;;3.47;0.93;;;19.80;99.90;;;;;;6194810;23;20051;-79
2022/08/28 14:22:57;;;;;;;5.65;1.23;;;19.80;99.90;;;;;;6246602;23;20051;-79
2022/08/28 14:25:23;;;;;;;3.83;0.90;;;19.70;99.90;;;;;;6245562;23;20027;-80
2022/08/28 14:27:49;;;;;;;6.50;1.52;;;19.60;99.90;;;;;;6245550;23;20073;-80
2022/08/28 14:30:16;;;;;;;4.78;1.30;;;19.50;99.90;;;;;;6246036;23;20098;-79
2022/08/28 14:32:42;;;;;;;4.78;1.38;;;19.50;99.90;;;;;;6218028;23;20020;-78
2022/08/28 14:35:08;;;;;;;4.30;2.03;;;19.40;99.90;;;;;;6246600;23;20027;-78
2022/08/28 14:37:34;;;;;;;7.28;1.90;;;19.40;99.90;;;;;;6193239;23;20098;-81
2022/08/28 14:40:00;;;;;;;5.53;1.70;;;19.50;99.90;;;;;;6246884;23;20027;-78
2022/08/28 14:42:26;;;;;;;4.47;1.50;;;19.50;99.90;;;;;;6246390;23;20014;-79
2022/08/28 14:44:52;;;;;;;3.90;1.30;;;19.50;99.90;;;;;;6218357;23;20535;-79
2022/08/28 14:47:18;;;;;;;4.88;1.17;;;19.50;99.90;;;;;;6245857;23;20016;-79
2022/08/28 14:49:44;;;;;;;5.78;1.48;;;19.50;99.90;;;;;;6246773;23;20023;-79
2022/08/28 14:52:10;;;;;;;7.63;1.50;;;19.60;99.90;;;;;;6217915;23;20056;-79
2022/08/28 14:54:37;;;;;;;5.18;2.38;;;19.60;99.90;;;;;;6246776;23;20052;-79
2022/08/28 14:57:03;;;;;;;3.33;1.10;;;19.50;99.90;;;;;;6246786;23;20099;-78
2022/08/28 14:59:30;;;;;;;5.18;1.25;;;19.40;99.90;;;;;;6245333;23;20051;-82
2022/08/28 15:01:58;;;;;;;6.63;1.77;;;19.40;99.90;;;;;;6218501;23;20016;-79
2022/08/28 15:04:26;;;;;;;7.43;1.77;;;19.30;99.90;;;;;;6245827;23;20012;-79
2022/08/28 15:06:57;;;;;;;9.73;1.70;;;19.30;99.90;;;;;;6244599;23;20317;-80
2022/08/28 15:09:24;;;;;;;4.22;1.40;;;19.30;99.90;;;;;;6243767;23;20460;-80
2022/08/28 15:11:50;;;;;;;5.68;1.63;;;19.20;99.90;;;;;;6218978;23;20020;-81
2022/08/28 15:14:16;;;;;;;5.13;1.70;;;19.10;99.90;;;;;;6245107;23;20019;-81
2022/08/28 15:16:45;;;;;;;8.07;1.33;;;19.00;99.90;;;;;;6186821;23;20071;-80
2022/08/28 15:19:14;;;;;;;5.63;1.40;;;19.00;99.90;;;;;;6214167;23;20084;-80
2022/08/28 15:21:46;;;;;;;1.98;0.98;;;19.00;99.90;;;;;;6212763;23;20539;-81
2022/08/28 15:24:13;;;;;;;3.50;1.27;;;19.00;99.90;;;;;;6216396;23;20053;-81
2022/08/28 15:26:39;;;;;;;4.15;1.75;;;19.00;99.90;;;;;;6215695;23;20321;-79
2022/08/28 15:29:05;;;;;;;3.10;1.08;;;19.00;99.90;;;;;;6214185;23;20021;-80
2022/08/28 15:31:36;;;;;;;5.93;1.05;;;19.00;99.90;;;;;;6213940;23;20032;-80
2022/08/28 15:34:11;;;;;;;4.70;1.40;;;19.00;99.90;;;;;;6212895;23;20023;-80
2022/08/28 15:36:38;;;;;;;3.20;1.08;;;18.90;99.90;;;;;;6215854;23;20078;-80
2022/08/28 15:41:50;;;;;;;6.13;1.48;;;18.90;99.90;;;;;;6212883;23;20100;-79
2022/08/28 15:44:15;;;;;;;4.05;1.10;;;18.90;99.90;;;;;;6215936;23;20052;-79
2022/08/28 15:46:50;;;;;;;8.02;1.48;;;18.90;99.90;;;;;;6215997;23;20052;-79
2022/08/28 15:49:17;;;;;;;;;;;18.90;99.90;;;;;;6217715;23;20340;-79
2022/08/28 15:51:43;;;;;;;3.60;1.35;;;18.80;99.90;;;;;;6216460;23;20213;-80
2022/08/28 15:54:09;;;;;;;7.13;1.50;;;18.70;99.90;;;;;;6218260;23;20047;-80
2022/08/28 15:56:35;;;;;;;5.07;1.67;;;18.70;99.90;;;;;;6215332;23;20020;-80
2022/08/28 15:59:00;;;;;;;3.78;1.10;;;18.60;99.90;;;;;;6216714;23;20032;-79
2022/08/28 16:01:26;;;;;;;5.97;1.60;;;18.60;99.90;;;;;;6216201;23;20048;-79
2022/08/28 16:03:52;;;;;;;9.23;1.60;;;18.60;99.90;;;;;;6213578;23;20052;-80
2022/08/28 16:06:19;;;;;;;5.20;1.40;;;18.60;99.90;;;;;;6216527;23;20017;-81
2022/08/28 16:08:47;;;;;;;8.38;1.80;;;18.50;99.90;;;;;;6215583;23;20391;-81
2022/08/28 16:11:21;;;;;;;6.32;1.88;;;18.50;99.90;;;;;;6214973;23;20016;-81
2022/08/28 16:13:48;;;;;;;5.82;1.70;;;18.50;99.90;;;;;;6216870;23;20351;-79
2022/08/28 16:16:14;;;;;;;5.05;1.25;;;18.50;99.90;;;;;;6214967;23;20087;-80
2022/08/28 16:18:40;;;;;;;2.47;1.00;;;18.40;99.90;;;;;;6215514;23;20107;-80
2022/08/28 16:21:06;;;;;;;6.20;1.50;;;18.40;99.90;;;;;;6216042;23;20110;-80
2022/08/28 16:23:32;;;;;;;9.30;3.45;;;18.30;99.90;;;;;;6214428;23;20012;-82
2022/08/28 16:25:59;;;;;;;7.90;2.25;;;18.30;99.90;;;;;;6215985;23;20031;-79
2022/08/28 16:28:25;;;;;;;4.40;1.48;;;18.20;99.90;;;;;;6215016;23;20016;-80
2022/08/28 16:30:51;;;;;;;7.07;1.25;;;18.20;99.90;;;;;;6216338;23;20016;-79
2022/08/28 16:33:19;;;;;;;7.07;1.30;;;18.20;99.90;;;;;;6216790;23;20016;-80
2022/08/28 16:35:45;;;;;;;11.18;1.42;;;18.20;99.90;;;;;;6217810;23;20028;-80
2022/08/28 16:38:12;;;;;;;7.28;1.65;;;18.20;99.90;;;;;;6214220;23;20012;-79
2022/08/28 16:40:43;;;;;;;6.70;1.45;;;18.20;99.90;;;;;;6213619;23;20102;-79
2022/08/28 16:43:08;;;;;;;6.35;1.67;;;18.30;99.90;;;;;;6213549;23;20479;-79
2022/08/28 16:45:35;;;;;;;7.40;1.50;;;18.20;99.90;;;;;;6214883;23;20051;-80
2022/08/28 16:48:02;;;;;;;6.07;1.50;;;18.20;99.90;;;;;;6214375;23;20507;-80
2022/08/28 16:50:31;;;;;;;6.30;1.63;;;18.20;99.90;;;;;;6216990;23;20016;-81
2022/08/28 16:53:00;;;;;;;5.35;1.48;;;18.30;99.90;;;;;;6216074;23;20013;-82
2022/08/28 16:55:27;;;;;;;4.50;1.33;;;18.30;99.90;;;;;;6214410;23;20023;-79
2022/08/28 16:57:54;;;;;;;7.18;1.40;;;18.20;99.90;;;;;;6215371;23;20063;-80
2022/08/28 17:00:21;;;;;;;3.38;1.10;;;18.20;99.90;;;;;;6214150;23;20024;-80
2022/08/28 17:02:46;;;;;;;4.93;1.05;;;18.20;99.90;;;;;;6217540;23;20352;-80
2022/08/28 17:05:15;;;;;;;4.15;1.42;;;18.10;99.90;;;;;;6215094;23;20024;-80
2022/08/28 17:07:42;;;;;;;5.75;1.48;;;18.10;99.90;;;;;;6217182;23;20021;-80
2022/08/28 17:10:11;;;;;;;3.83;1.33;;;18.10;99.90;;;;;;6216825;23;20028;-80
2022/08/28 17:12:38;;;;;;;5.35;1.58;;;18.10;99.90;;;;;;6215533;23;20083;-81
2022/08/28 17:15:05;;;;;;;8.57;2.53;;;18.10;99.90;;;;;;6214899;23;20456;-79
2022/08/28 17:17:32;;;;;;;6.13;1.80;;;18.00;99.90;;;;;;6215320;23;20059;-80
2022/08/28 17:19:58;;;;;;;3.53;1.08;;;18.00;99.90;;;;;;6215385;23;20020;-82
2022/08/28 17:22:30;;;;;;;8.07;1.35;;;18.00;99.90;;;;;;6215407;23;20013;-79
2022/08/28 17:25:12;;;;;;;10.20;1.58;;;18.00;99.90;;;;;;6216802;23;20039;-80
2022/08/28 17:27:41;;;;;;;6.00;1.35;;;17.90;99.90;;;;;;6215907;23;20019;-80
2022/08/28 17:30:09;;;;;;;6.22;1.10;;;17.90;99.90;;;;;;6216187;23;20344;-81
2022/08/28 17:32:35;;;;;;;5.47;1.52;;;17.80;99.90;;;;;;6216649;23;20433;-82
2022/08/28 17:35:01;;;;;;;6.88;2.08;;;17.80;99.90;;;;;;6213531;23;20464;-81
2022/08/28 17:37:27;;;;;;;4.13;1.30;;;17.80;99.90;;;;;;6217200;23;20032;-81
2022/08/28 17:39:53;;;;;;;6.55;1.77;;;17.70;99.90;;;;;;6216527;23;20425;-80
2022/08/28 17:42:19;;;;;;;3.30;1.38;;;17.70;99.90;;;;;;6215629;23;20055;-80
2022/08/28 17:44:45;;;;;;;4.90;1.17;;;17.60;99.90;;;;;;6214587;23;20491;-79
2022/08/28 17:47:11;;;;;;;4.78;1.08;;;17.50;99.90;;;;;;6216295;23;20084;-78
2022/08/28 17:49:38;;;;;;;3.65;1.60;;;17.50;99.90;;;;;;6214275;23;20393;-77
2022/08/28 17:52:05;;;;;;;2.97;1.00;;;17.40;99.90;;;;;;6214371;23;20016;-78
2022/08/28 17:54:31;;;;;;;4.82;1.50;;;17.50;99.90;;;;;;6213120;23;20024;-78
2022/08/28 17:56:57;;;;;;;2.30;1.17;;;17.50;99.90;;;;;;6214083;23;20092;-77
2022/08/28 17:59:25;;;;;;;8.13;1.45;;;17.60;99.90;;;;;;6213258;23;20028;-77
2022/08/28 18:01:51;;;;;;;3.55;1.17;;;17.50;99.90;;;;;;6212832;23;20151;-78
2022/08/28 18:04:18;;;;;;;4.85;1.50;;;17.50;99.90;;;;;;6215900;23;20460;-79
2022/08/28 18:06:45;;;;;;;4.57;1.35;;;17.50;99.90;;;;;;6187067;23;20021;-77
2022/08/28 18:09:11;;;;;;;7.50;1.67;;;17.50;99.90;;;;;;6213066;23;20298;-78
2022/08/28 18:11:38;;;;;;;6.63;1.40;;;17.40;99.90;;;;;;6213455;23;20083;-78
2022/08/28 18:14:04;;;;;;;6.25;1.80;;;17.50;99.90;;;;;;6214971;23;20019;-77
2022/08/28 18:16:32;;;;;;;6.60;1.60;;;17.40;99.90;;;;;;6211716;23;20519;-78
2022/08/28 18:18:59;;;;;;;5.65;1.60;;;17.30;99.90;;;;;;6213412;23;20020;-79
2022/08/28 18:21:25;;;;;;;6.38;1.55;;;17.30;99.90;;;;;;6212721;23;20016;-79
2022/08/28 18:23:51;;;;;;;5.22;1.48;;;17.20;99.90;;;;;;6187112;23;20498;-79
2022/08/28 18:26:17;;;;;;;6.68;1.98;;;17.10;99.90;;;;;;6214096;23;20021;-79
2022/08/28 18:28:42;;;;;;;7.00;1.33;;;17.00;99.90;;;;;;6187708;23;20017;-79
2022/08/28 18:31:08;;;;;;;3.00;1.20;;;16.90;99.90;;;;;;6187909;23;20108;-79
2022/08/28 18:33:35;;;;;;;6.00;1.70;;;16.80;99.90;;;;;;6213563;23;20017;-79
2022/08/28 18:36:06;;;;;;;4.13;1.58;;;16.70;99.90;;;;;;6188003;23;20021;-78
2022/08/28 18:38:34;;;;;;;5.28;1.40;;;16.60;99.90;;;;;;6212506;23;20016;-79
2022/08/28 18:41:01;;;;;;;6.50;1.35;;;16.60;99.90;;;;;;6213203;23;20495;-79
2022/08/28 18:43:26;;;;;;;5.93;1.50;;;16.50;99.90;;;;;;6214077;23;20360;-79
2022/08/28 18:45:52;;;;;;;6.03;1.20;;;16.50;99.90;;;;;;6213892;23;20027;-78
2022/08/28 18:48:18;;;;;;;9.10;1.65;;;16.40;99.90;;;;;;6215755;23;20401;-79
2022/08/28 18:50:46;;;;;;;8.05;1.40;;;16.40;99.90;;;;;;6213901;23;20055;-80
2022/08/28 18:53:13;;;;;;;10.65;2.10;;;16.40;99.90;;;;;;6213720;23;20020;-79
2022/08/28 18:55:39;;;;;;;6.95;1.45;;;16.30;99.90;;;;;;6213012;23;20322;-78
2022/08/28 18:58:05;;;;;;;6.75;1.58;;;16.30;99.90;;;;;;6212790;23;20089;-79
2022/08/28 19:00:31;;;;;;;6.82;1.67;;;16.30;99.90;;;;;;6213191;23;20074;-79
2022/08/28 19:02:57;;;;;;;5.28;1.58;;;16.20;99.90;;;;;;6213557;23;20024;-78
2022/08/28 19:05:23;;;;;;;5.50;1.75;;;16.20;99.90;;;;;;6214089;23;20013;-79
2022/08/28 19:07:49;;;;;;;3.92;1.48;;;16.20;99.90;;;;;;6212802;23;20059;-79
2022/08/28 19:10:16;;;;;;;6.75;1.60;;;16.20;99.90;;;;;;6213502;23;20024;-77
2022/08/28 19:12:42;;;;;;;8.15;1.98;;;16.20;99.90;;;;;;6213791;23;20395;-78
2022/08/28 19:15:10;;;;;;;7.97;1.65;;;16.10;99.90;;;;;;6215582;23;20017;-79
2022/08/28 19:17:37;;;;;;;8.75;1.55;;;16.10;99.90;;;;;;6212873;23;20463;-78
2022/08/28 19:20:07;;;;;;;8.43;1.73;;;16.10;99.90;;;;;;6212785;23;20021;-79
2022/08/28 19:22:33;;;;;;;7.70;1.70;;;16.10;99.90;;;;;;6212707;23;20017;-80
2022/08/28 19:25:03;;;;;;;13.25;1.92;;;16.10;99.90;;;;;;6188204;23;20095;-79
2022/08/28 19:27:29;;;;;;;4.43;1.42;;;16.10;99.90;;;;;;6212028;23;20013;-79
2022/08/28 19:29:55;;;;;;;7.18;1.77;;;16.10;99.90;;;;;;6188013;23;20340;-79
2022/08/28 19:32:20;;;;;;;3.17;1.40;;;16.10;99.90;;;;;;6213193;23;20024;-79
2022/08/28 19:34:46;;;;;;;7.10;1.70;;;16.10;99.90;;;;;;6186815;23;20444;-80
2022/08/28 19:37:13;;;;;;;10.32;1.85;;;16.10;99.90;;;;;;6212967;23;20027;-80
2022/08/28 19:39:39;;;;;;;9.02;1.75;;;16.10;99.90;;;;;;6187584;23;20013;-80
2022/08/28 19:42:05;;;;;;;7.25;2.25;;;16.20;99.90;;;;;;6212546;23;20120;-79